sensor_id;sensor_type;location;lat;lon;timestamp;P1;durP1;ratioP1;P2;durP2;ratioP2
21860;SDS011;11095;48.066;8.540;2023-03-01T00:00:19;28.00;;;15.82;;
21860;SDS011;11095;48.066;8.540;2023-03-01T00:02:47;30.85;;;16.65;;
21860;SDS011;11095;48.066;8.540;2023-03-01T00:05:13;34.03;;;16.13;;
21860;SDS011;11095;48.066;8.540;2023-03-01T00:07:51;32.75;;;16.67;;
21860;SDS011;11095;48.066;8.540;2023-03-01T00:10:18;28.58;;;16.05;;
21860;SDS011;11095;48.066;8.540;2023-03-01T00:12:49;29.73;;;16.33;;
21860;SDS011;11095;48.066;8.540;2023-03-01T00:15:23;31.73;;;16.30;;
21860;SDS011;11095;48.066;8.540;2023-03-01T00:17:48;29.38;;;16.15;;
21860;SDS011;11095;48.066;8.540;2023-03-01T00:20:37;29.95;;;15.93;;
21860;SDS011;11095;48.066;8.540;2023-03-01T00:23:06;30.45;;;16.17;;
21860;SDS011;11095;48.066;8.540;2023-03-01T00:25:40;28.92;;;14.98;;
21860;SDS011;11095;48.066;8.540;2023-03-01T00:28:07;28.92;;;15.55;;
21860;SDS011;11095;48.066;8.540;2023-03-01T00:30:36;29.92;;;16.33;;
21860;SDS011;11095;48.066;8.540;2023-03-01T00:36:27;26.88;;;14.43;;
21860;SDS011;11095;48.066;8.540;2023-03-01T00:39:07;29.52;;;15.93;;
21860;SDS011;11095;48.066;8.540;2023-03-01T00:41:36;29.35;;;15.32;;
21860;SDS011;11095;48.066;8.540;2023-03-01T00:44:07;26.70;;;14.60;;
21860;SDS011;11095;48.066;8.540;2023-03-01T00:50:28;26.98;;;13.95;;
21860;SDS011;11095;48.066;8.540;2023-03-01T00:52:57;28.45;;;15.57;;
21860;SDS011;11095;48.066;8.540;2023-03-01T00:59:16;27.50;;;14.60;;
21860;SDS011;11095;48.066;8.540;2023-03-01T01:01:53;28.70;;;15.35;;
21860;SDS011;11095;48.066;8.540;2023-03-01T01:05:05;27.35;;;15.27;;
21860;SDS011;11095;48.066;8.540;2023-03-01T01:15:06;32.67;;;16.90;;
21860;SDS011;11095;48.066;8.540;2023-03-01T01:18:23;33.25;;;16.52;;
21860;SDS011;11095;48.066;8.540;2023-03-01T01:21:17;32.55;;;16.42;;
21860;SDS011;11095;48.066;8.540;2023-03-01T01:30:52;32.40;;;16.52;;
21860;SDS011;11095;48.066;8.540;2023-03-01T01:40:58;31.38;;;15.77;;
21860;SDS011;11095;48.066;8.540;2023-03-01T01:52:19;30.77;;;15.63;;
21860;SDS011;11095;48.066;8.540;2023-03-01T01:54:52;31.38;;;16.90;;
21860;SDS011;11095;48.066;8.540;2023-03-01T01:57:26;32.30;;;16.50;;
21860;SDS011;11095;48.066;8.540;2023-03-01T02:00:04;27.75;;;16.10;;
21860;SDS011;11095;48.066;8.540;2023-03-01T02:02:33;30.17;;;16.40;;
21860;SDS011;11095;48.066;8.540;2023-03-01T02:05:01;35.10;;;18.27;;
21860;SDS011;11095;48.066;8.540;2023-03-01T02:07:36;30.10;;;16.23;;
21860;SDS011;11095;48.066;8.540;2023-03-01T02:10:05;32.95;;;17.05;;
21860;SDS011;11095;48.066;8.540;2023-03-01T02:12:30;29.88;;;16.02;;
21860;SDS011;11095;48.066;8.540;2023-03-01T02:14:56;31.10;;;16.90;;
21860;SDS011;11095;48.066;8.540;2023-03-01T02:17:22;31.92;;;17.35;;
21860;SDS011;11095;48.066;8.540;2023-03-01T02:19:58;31.50;;;16.85;;
21860;SDS011;11095;48.066;8.540;2023-03-01T02:22:35;29.63;;;16.23;;
21860;SDS011;11095;48.066;8.540;2023-03-01T02:25:18;30.13;;;16.23;;
21860;SDS011;11095;48.066;8.540;2023-03-01T02:28:08;29.40;;;16.23;;
21860;SDS011;11095;48.066;8.540;2023-03-01T02:30:40;30.05;;;16.77;;
21860;SDS011;11095;48.066;8.540;2023-03-01T02:33:27;30.00;;;16.02;;
21860;SDS011;11095;48.066;8.540;2023-03-01T02:35:57;30.13;;;16.58;;
21860;SDS011;11095;48.066;8.540;2023-03-01T02:38:26;29.00;;;15.85;;
21860;SDS011;11095;48.066;8.540;2023-03-01T02:40:53;30.35;;;16.65;;
21860;SDS011;11095;48.066;8.540;2023-03-01T02:43:22;29.27;;;16.80;;
21860;SDS011;11095;48.066;8.540;2023-03-01T02:45:52;31.08;;;16.98;;
21860;SDS011;11095;48.066;8.540;2023-03-01T02:48:22;31.02;;;16.75;;
21860;SDS011;11095;48.066;8.540;2023-03-01T02:56:25;31.50;;;16.88;;
21860;SDS011;11095;48.066;8.540;2023-03-01T02:58:51;29.40;;;15.90;;
21860;SDS011;11095;48.066;8.540;2023-03-01T03:01:18;32.83;;;16.35;;
21860;SDS011;11095;48.066;8.540;2023-03-01T03:03:44;29.42;;;16.73;;
21860;SDS011;11095;48.066;8.540;2023-03-01T03:06:10;32.33;;;17.85;;
21860;SDS011;11095;48.066;8.540;2023-03-01T03:08:35;30.63;;;16.95;;
21860;SDS011;11095;48.066;8.540;2023-03-01T03:11:01;31.50;;;17.13;;
21860;SDS011;11095;48.066;8.540;2023-03-01T03:13:27;31.45;;;17.90;;
21860;SDS011;11095;48.066;8.540;2023-03-01T03:15:53;31.70;;;17.48;;
21860;SDS011;11095;48.066;8.540;2023-03-01T03:18:20;30.83;;;17.13;;
21860;SDS011;11095;48.066;8.540;2023-03-01T03:20:47;31.50;;;17.52;;
21860;SDS011;11095;48.066;8.540;2023-03-01T03:23:18;30.92;;;17.38;;
21860;SDS011;11095;48.066;8.540;2023-03-01T03:25:44;32.00;;;17.17;;
21860;SDS011;11095;48.066;8.540;2023-03-01T03:28:12;32.85;;;17.35;;
21860;SDS011;11095;48.066;8.540;2023-03-01T03:30:38;31.55;;;17.05;;
21860;SDS011;11095;48.066;8.540;2023-03-01T03:33:06;35.35;;;17.92;;
21860;SDS011;11095;48.066;8.540;2023-03-01T03:35:34;34.13;;;18.77;;
21860;SDS011;11095;48.066;8.540;2023-03-01T03:38:09;31.65;;;17.70;;
21860;SDS011;11095;48.066;8.540;2023-03-01T03:40:41;34.63;;;18.05;;
21860;SDS011;11095;48.066;8.540;2023-03-01T03:43:10;33.70;;;17.40;;
21860;SDS011;11095;48.066;8.540;2023-03-01T03:45:41;35.10;;;17.80;;
21860;SDS011;11095;48.066;8.540;2023-03-01T03:48:08;31.90;;;18.17;;
21860;SDS011;11095;48.066;8.540;2023-03-01T03:50:35;32.88;;;17.85;;
21860;SDS011;11095;48.066;8.540;2023-03-01T03:53:03;31.58;;;17.25;;
21860;SDS011;11095;48.066;8.540;2023-03-01T03:55:30;35.85;;;18.50;;
21860;SDS011;11095;48.066;8.540;2023-03-01T03:57:59;34.55;;;18.85;;
21860;SDS011;11095;48.066;8.540;2023-03-01T04:00:31;35.45;;;18.17;;
21860;SDS011;11095;48.066;8.540;2023-03-01T04:02:58;33.38;;;18.58;;
21860;SDS011;11095;48.066;8.540;2023-03-01T04:05:24;36.83;;;18.83;;
21860;SDS011;11095;48.066;8.540;2023-03-01T04:07:50;36.72;;;19.48;;
21860;SDS011;11095;48.066;8.540;2023-03-01T04:10:26;30.77;;;17.80;;
21860;SDS011;11095;48.066;8.540;2023-03-01T04:12:53;35.70;;;17.73;;
21860;SDS011;11095;48.066;8.540;2023-03-01T04:15:21;36.30;;;18.92;;
21860;SDS011;11095;48.066;8.540;2023-03-01T04:17:49;31.90;;;17.83;;
21860;SDS011;11095;48.066;8.540;2023-03-01T04:20:17;33.30;;;18.45;;
21860;SDS011;11095;48.066;8.540;2023-03-01T04:22:56;33.95;;;18.52;;
21860;SDS011;11095;48.066;8.540;2023-03-01T04:25:24;36.45;;;18.38;;
21860;SDS011;11095;48.066;8.540;2023-03-01T04:27:50;33.15;;;18.35;;
21860;SDS011;11095;48.066;8.540;2023-03-01T04:30:15;34.53;;;18.80;;
21860;SDS011;11095;48.066;8.540;2023-03-01T04:32:41;33.22;;;18.42;;
21860;SDS011;11095;48.066;8.540;2023-03-01T04:35:07;36.90;;;18.50;;
21860;SDS011;11095;48.066;8.540;2023-03-01T04:37:33;31.33;;;17.75;;
21860;SDS011;11095;48.066;8.540;2023-03-01T04:40:00;32.58;;;17.83;;
21860;SDS011;11095;48.066;8.540;2023-03-01T04:42:26;33.47;;;18.35;;
21860;SDS011;11095;48.066;8.540;2023-03-01T04:44:51;34.50;;;18.90;;
21860;SDS011;11095;48.066;8.540;2023-03-01T04:47:17;36.00;;;19.20;;
21860;SDS011;11095;48.066;8.540;2023-03-01T04:49:43;34.53;;;19.20;;
21860;SDS011;11095;48.066;8.540;2023-03-01T04:52:09;32.78;;;18.30;;
21860;SDS011;11095;48.066;8.540;2023-03-01T04:54:34;36.65;;;18.77;;
21860;SDS011;11095;48.066;8.540;2023-03-01T04:57:01;37.33;;;19.45;;
21860;SDS011;11095;48.066;8.540;2023-03-01T04:59:27;35.83;;;19.55;;
21860;SDS011;11095;48.066;8.540;2023-03-01T05:01:54;35.55;;;19.77;;
21860;SDS011;11095;48.066;8.540;2023-03-01T05:04:21;37.38;;;19.50;;
21860;SDS011;11095;48.066;8.540;2023-03-01T05:06:47;39.22;;;20.00;;
21860;SDS011;11095;48.066;8.540;2023-03-01T05:09:13;37.67;;;19.30;;
21860;SDS011;11095;48.066;8.540;2023-03-01T05:11:39;36.42;;;18.92;;
21860;SDS011;11095;48.066;8.540;2023-03-01T05:14:05;34.10;;;18.38;;
21860;SDS011;11095;48.066;8.540;2023-03-01T05:16:32;33.83;;;18.27;;
21860;SDS011;11095;48.066;8.540;2023-03-01T05:18:58;39.35;;;19.15;;
21860;SDS011;11095;48.066;8.540;2023-03-01T05:21:24;33.22;;;18.15;;
21860;SDS011;11095;48.066;8.540;2023-03-01T05:23:50;37.00;;;19.27;;
21860;SDS011;11095;48.066;8.540;2023-03-01T05:26:17;34.28;;;19.38;;
21860;SDS011;11095;48.066;8.540;2023-03-01T05:28:44;35.70;;;19.15;;
21860;SDS011;11095;48.066;8.540;2023-03-01T05:31:09;37.40;;;18.90;;
21860;SDS011;11095;48.066;8.540;2023-03-01T05:33:39;34.08;;;18.85;;
21860;SDS011;11095;48.066;8.540;2023-03-01T05:36:08;35.97;;;19.10;;
21860;SDS011;11095;48.066;8.540;2023-03-01T05:38:34;37.08;;;18.92;;
21860;SDS011;11095;48.066;8.540;2023-03-01T05:41:00;38.50;;;20.48;;
21860;SDS011;11095;48.066;8.540;2023-03-01T05:43:26;35.45;;;18.73;;
21860;SDS011;11095;48.066;8.540;2023-03-01T05:45:58;37.25;;;20.02;;
21860;SDS011;11095;48.066;8.540;2023-03-01T05:48:24;36.50;;;19.35;;
21860;SDS011;11095;48.066;8.540;2023-03-01T05:50:51;36.00;;;19.83;;
21860;SDS011;11095;48.066;8.540;2023-03-01T05:53:17;35.78;;;19.17;;
21860;SDS011;11095;48.066;8.540;2023-03-01T05:55:46;38.58;;;20.70;;
21860;SDS011;11095;48.066;8.540;2023-03-01T05:58:16;35.40;;;19.23;;
21860;SDS011;11095;48.066;8.540;2023-03-01T06:00:43;34.28;;;19.23;;
21860;SDS011;11095;48.066;8.540;2023-03-01T06:03:10;36.38;;;19.67;;
21860;SDS011;11095;48.066;8.540;2023-03-01T06:05:37;39.58;;;20.35;;
21860;SDS011;11095;48.066;8.540;2023-03-01T06:08:04;35.70;;;19.95;;
21860;SDS011;11095;48.066;8.540;2023-03-01T06:10:30;35.33;;;19.80;;
21860;SDS011;11095;48.066;8.540;2023-03-01T06:12:56;38.25;;;19.77;;
21860;SDS011;11095;48.066;8.540;2023-03-01T06:15:22;39.17;;;20.15;;
21860;SDS011;11095;48.066;8.540;2023-03-01T06:17:48;38.00;;;20.20;;
21860;SDS011;11095;48.066;8.540;2023-03-01T06:20:15;39.13;;;19.92;;
21860;SDS011;11095;48.066;8.540;2023-03-01T06:22:42;39.50;;;20.35;;
21860;SDS011;11095;48.066;8.540;2023-03-01T06:25:08;37.58;;;19.77;;
21860;SDS011;11095;48.066;8.540;2023-03-01T06:27:35;41.95;;;20.67;;
21860;SDS011;11095;48.066;8.540;2023-03-01T06:30:01;39.03;;;20.42;;
21860;SDS011;11095;48.066;8.540;2023-03-01T06:32:27;37.28;;;20.45;;
21860;SDS011;11095;48.066;8.540;2023-03-01T06:34:52;37.20;;;20.10;;
21860;SDS011;11095;48.066;8.540;2023-03-01T06:37:18;35.45;;;20.05;;
21860;SDS011;11095;48.066;8.540;2023-03-01T06:39:44;39.70;;;20.38;;
21860;SDS011;11095;48.066;8.540;2023-03-01T06:42:09;39.42;;;20.30;;
21860;SDS011;11095;48.066;8.540;2023-03-01T06:44:36;40.25;;;21.52;;
21860;SDS011;11095;48.066;8.540;2023-03-01T06:47:02;37.28;;;20.13;;
21860;SDS011;11095;48.066;8.540;2023-03-01T06:49:28;42.35;;;21.33;;
21860;SDS011;11095;48.066;8.540;2023-03-01T06:51:55;36.70;;;19.85;;
21860;SDS011;11095;48.066;8.540;2023-03-01T06:54:21;41.20;;;21.08;;
21860;SDS011;11095;48.066;8.540;2023-03-01T06:56:47;41.50;;;20.17;;
21860;SDS011;11095;48.066;8.540;2023-03-01T06:59:13;39.40;;;20.75;;
21860;SDS011;11095;48.066;8.540;2023-03-01T07:01:39;41.08;;;20.77;;
21860;SDS011;11095;48.066;8.540;2023-03-01T07:04:04;37.33;;;20.35;;
21860;SDS011;11095;48.066;8.540;2023-03-01T07:06:30;38.50;;;20.85;;
21860;SDS011;11095;48.066;8.540;2023-03-01T07:08:56;40.85;;;21.13;;
21860;SDS011;11095;48.066;8.540;2023-03-01T07:11:21;41.30;;;21.02;;
21860;SDS011;11095;48.066;8.540;2023-03-01T07:13:48;39.75;;;21.10;;
21860;SDS011;11095;48.066;8.540;2023-03-01T07:16:13;39.50;;;21.77;;
21860;SDS011;11095;48.066;8.540;2023-03-01T07:18:39;42.33;;;21.83;;
21860;SDS011;11095;48.066;8.540;2023-03-01T07:21:09;44.53;;;21.85;;
21860;SDS011;11095;48.066;8.540;2023-03-01T07:23:37;42.33;;;20.85;;
21860;SDS011;11095;48.066;8.540;2023-03-01T07:26:03;40.67;;;21.52;;
21860;SDS011;11095;48.066;8.540;2023-03-01T07:28:29;42.13;;;22.38;;
21860;SDS011;11095;48.066;8.540;2023-03-01T07:30:55;41.33;;;22.10;;
21860;SDS011;11095;48.066;8.540;2023-03-01T07:33:26;40.70;;;21.77;;
21860;SDS011;11095;48.066;8.540;2023-03-01T07:35:58;43.90;;;22.48;;
21860;SDS011;11095;48.066;8.540;2023-03-01T07:38:26;41.10;;;21.27;;
21860;SDS011;11095;48.066;8.540;2023-03-01T07:40:54;41.05;;;22.02;;
21860;SDS011;11095;48.066;8.540;2023-03-01T07:43:27;41.38;;;21.42;;
21860;SDS011;11095;48.066;8.540;2023-03-01T07:45:53;38.65;;;21.27;;
21860;SDS011;11095;48.066;8.540;2023-03-01T07:48:19;39.75;;;21.13;;
21860;SDS011;11095;48.066;8.540;2023-03-01T07:50:45;40.10;;;21.77;;
21860;SDS011;11095;48.066;8.540;2023-03-01T07:53:10;40.03;;;21.55;;
21860;SDS011;11095;48.066;8.540;2023-03-01T07:55:36;39.40;;;20.92;;
21860;SDS011;11095;48.066;8.540;2023-03-01T07:58:02;38.88;;;20.90;;
21860;SDS011;11095;48.066;8.540;2023-03-01T08:00:28;39.28;;;21.48;;
21860;SDS011;11095;48.066;8.540;2023-03-01T08:02:53;40.05;;;20.90;;
21860;SDS011;11095;48.066;8.540;2023-03-01T08:05:19;37.28;;;20.27;;
21860;SDS011;11095;48.066;8.540;2023-03-01T08:07:47;38.90;;;21.23;;
21860;SDS011;11095;48.066;8.540;2023-03-01T08:10:12;38.80;;;20.67;;
21860;SDS011;11095;48.066;8.540;2023-03-01T08:12:38;38.47;;;21.27;;
21860;SDS011;11095;48.066;8.540;2023-03-01T08:15:04;35.63;;;20.33;;
21860;SDS011;11095;48.066;8.540;2023-03-01T08:17:30;38.05;;;21.33;;
21860;SDS011;11095;48.066;8.540;2023-03-01T08:19:55;37.58;;;20.52;;
21860;SDS011;11095;48.066;8.540;2023-03-01T08:22:21;38.67;;;20.98;;
21860;SDS011;11095;48.066;8.540;2023-03-01T08:24:46;36.63;;;20.30;;
21860;SDS011;11095;48.066;8.540;2023-03-01T08:27:12;37.28;;;20.65;;
21860;SDS011;11095;48.066;8.540;2023-03-01T08:29:40;34.58;;;20.00;;
21860;SDS011;11095;48.066;8.540;2023-03-01T08:32:05;41.38;;;21.73;;
21860;SDS011;11095;48.066;8.540;2023-03-01T08:34:31;39.88;;;21.10;;
21860;SDS011;11095;48.066;8.540;2023-03-01T08:36:57;42.17;;;21.40;;
21860;SDS011;11095;48.066;8.540;2023-03-01T08:39:23;39.85;;;20.83;;
21860;SDS011;11095;48.066;8.540;2023-03-01T08:41:48;38.80;;;20.63;;
21860;SDS011;11095;48.066;8.540;2023-03-01T08:44:14;42.45;;;21.58;;
21860;SDS011;11095;48.066;8.540;2023-03-01T08:46:44;38.35;;;20.75;;
21860;SDS011;11095;48.066;8.540;2023-03-01T08:49:11;37.53;;;20.50;;
21860;SDS011;11095;48.066;8.540;2023-03-01T08:51:42;36.38;;;19.08;;
21860;SDS011;11095;48.066;8.540;2023-03-01T08:54:12;37.28;;;20.63;;
21860;SDS011;11095;48.066;8.540;2023-03-01T08:56:40;39.70;;;20.42;;
21860;SDS011;11095;48.066;8.540;2023-03-01T08:59:06;34.92;;;18.92;;
21860;SDS011;11095;48.066;8.540;2023-03-01T09:01:32;37.83;;;20.27;;
21860;SDS011;11095;48.066;8.540;2023-03-01T09:03:58;37.50;;;19.75;;
21860;SDS011;11095;48.066;8.540;2023-03-01T09:06:24;37.58;;;19.80;;
21860;SDS011;11095;48.066;8.540;2023-03-01T09:08:50;37.42;;;20.15;;
21860;SDS011;11095;48.066;8.540;2023-03-01T09:11:19;36.42;;;18.60;;
21860;SDS011;11095;48.066;8.540;2023-03-01T09:13:46;34.80;;;18.95;;
21860;SDS011;11095;48.066;8.540;2023-03-01T09:16:13;39.00;;;19.90;;
21860;SDS011;11095;48.066;8.540;2023-03-01T09:18:40;36.03;;;19.17;;
21860;SDS011;11095;48.066;8.540;2023-03-01T09:21:13;32.28;;;18.33;;
21860;SDS011;11095;48.066;8.540;2023-03-01T09:23:41;35.45;;;19.65;;
21860;SDS011;11095;48.066;8.540;2023-03-01T09:26:09;36.30;;;19.97;;
21860;SDS011;11095;48.066;8.540;2023-03-01T09:28:37;31.38;;;18.02;;
21860;SDS011;11095;48.066;8.540;2023-03-01T09:31:04;37.40;;;20.17;;
21860;SDS011;11095;48.066;8.540;2023-03-01T09:33:30;35.55;;;19.30;;
21860;SDS011;11095;48.066;8.540;2023-03-01T09:35:58;34.88;;;18.88;;
21860;SDS011;11095;48.066;8.540;2023-03-01T09:38:25;33.70;;;19.02;;
21860;SDS011;11095;48.066;8.540;2023-03-01T09:40:51;38.33;;;20.52;;
21860;SDS011;11095;48.066;8.540;2023-03-01T09:43:27;35.60;;;19.85;;
21860;SDS011;11095;48.066;8.540;2023-03-01T09:46:00;36.40;;;19.20;;
21860;SDS011;11095;48.066;8.540;2023-03-01T09:48:33;35.35;;;19.40;;
21860;SDS011;11095;48.066;8.540;2023-03-01T09:51:07;33.28;;;18.23;;
21860;SDS011;11095;48.066;8.540;2023-03-01T09:53:41;35.83;;;19.42;;
21860;SDS011;11095;48.066;8.540;2023-03-01T09:56:20;38.50;;;19.80;;
21860;SDS011;11095;48.066;8.540;2023-03-01T09:58:59;38.75;;;19.88;;
21860;SDS011;11095;48.066;8.540;2023-03-01T10:01:59;32.63;;;18.73;;
21860;SDS011;11095;48.066;8.540;2023-03-01T10:09:57;35.13;;;19.40;;
21860;SDS011;11095;48.066;8.540;2023-03-01T10:12:25;32.83;;;18.85;;
21860;SDS011;11095;48.066;8.540;2023-03-01T10:15:00;36.63;;;18.90;;
21860;SDS011;11095;48.066;8.540;2023-03-01T10:17:50;30.73;;;17.80;;
21860;SDS011;11095;48.066;8.540;2023-03-01T10:20:21;32.80;;;18.08;;
21860;SDS011;11095;48.066;8.540;2023-03-01T10:22:48;32.50;;;18.15;;
21860;SDS011;11095;48.066;8.540;2023-03-01T10:28:09;33.20;;;18.38;;
21860;SDS011;11095;48.066;8.540;2023-03-01T10:30:59;34.22;;;19.42;;
21860;SDS011;11095;48.066;8.540;2023-03-01T10:36:02;34.83;;;19.75;;
21860;SDS011;11095;48.066;8.540;2023-03-01T10:38:28;35.45;;;19.40;;
21860;SDS011;11095;48.066;8.540;2023-03-01T10:41:04;35.40;;;19.00;;
21860;SDS011;11095;48.066;8.540;2023-03-01T10:43:48;34.75;;;18.15;;
21860;SDS011;11095;48.066;8.540;2023-03-01T10:46:27;33.97;;;18.15;;
21860;SDS011;11095;48.066;8.540;2023-03-01T10:49:07;34.83;;;19.25;;
21860;SDS011;11095;48.066;8.540;2023-03-01T10:51:40;33.35;;;18.77;;
21860;SDS011;11095;48.066;8.540;2023-03-01T10:56:46;36.03;;;19.30;;
21860;SDS011;11095;48.066;8.540;2023-03-01T10:59:33;33.15;;;18.45;;
21860;SDS011;11095;48.066;8.540;2023-03-01T11:04:27;34.53;;;18.92;;
21860;SDS011;11095;48.066;8.540;2023-03-01T11:07:02;32.42;;;18.73;;
21860;SDS011;11095;48.066;8.540;2023-03-01T11:09:30;31.40;;;18.38;;
21860;SDS011;11095;48.066;8.540;2023-03-01T11:12:02;32.25;;;18.00;;
21860;SDS011;11095;48.066;8.540;2023-03-01T11:14:33;33.83;;;18.13;;
21860;SDS011;11095;48.066;8.540;2023-03-01T11:17:17;32.15;;;18.05;;
21860;SDS011;11095;48.066;8.540;2023-03-01T11:20:33;32.75;;;17.80;;
21860;SDS011;11095;48.066;8.540;2023-03-01T11:22:43;32.00;;;18.13;;
21860;SDS011;11095;48.066;8.540;2023-03-01T11:25:23;31.30;;;17.83;;
21860;SDS011;11095;48.066;8.540;2023-03-01T11:28:00;30.67;;;17.55;;
21860;SDS011;11095;48.066;8.540;2023-03-01T11:30:32;30.17;;;18.02;;
21860;SDS011;11095;48.066;8.540;2023-03-01T11:35:37;29.20;;;17.40;;
21860;SDS011;11095;48.066;8.540;2023-03-01T11:38:14;29.40;;;17.00;;
21860;SDS011;11095;48.066;8.540;2023-03-01T11:40:52;29.48;;;17.50;;
21860;SDS011;11095;48.066;8.540;2023-03-01T11:48:43;29.55;;;16.67;;
21860;SDS011;11095;48.066;8.540;2023-03-01T11:56:57;28.63;;;16.42;;
21860;SDS011;11095;48.066;8.540;2023-03-01T12:22:52;29.33;;;16.42;;
21860;SDS011;11095;48.066;8.540;2023-03-01T12:36:21;29.38;;;16.30;;
21860;SDS011;11095;48.066;8.540;2023-03-01T12:42:07;27.23;;;15.43;;
21860;SDS011;11095;48.066;8.540;2023-03-01T12:45:02;25.45;;;15.30;;
21860;SDS011;11095;48.066;8.540;2023-03-01T12:47:54;26.73;;;15.00;;
21860;SDS011;11095;48.066;8.540;2023-03-01T12:50:20;23.95;;;14.30;;
21860;SDS011;11095;48.066;8.540;2023-03-01T12:52:57;24.30;;;14.48;;
21860;SDS011;11095;48.066;8.540;2023-03-01T12:55:27;23.95;;;14.55;;
21860;SDS011;11095;48.066;8.540;2023-03-01T12:58:16;25.38;;;14.52;;
21860;SDS011;11095;48.066;8.540;2023-03-01T13:09:11;23.48;;;14.05;;
21860;SDS011;11095;48.066;8.540;2023-03-01T13:11:50;21.88;;;13.93;;
21860;SDS011;11095;48.066;8.540;2023-03-01T13:16:51;23.75;;;13.38;;
21860;SDS011;11095;48.066;8.540;2023-03-01T13:19:18;21.30;;;13.63;;
21860;SDS011;11095;48.066;8.540;2023-03-01T13:21:49;23.67;;;13.50;;
21860;SDS011;11095;48.066;8.540;2023-03-01T13:24:29;23.15;;;14.20;;
21860;SDS011;11095;48.066;8.540;2023-03-01T13:29:46;24.97;;;13.63;;
21860;SDS011;11095;48.066;8.540;2023-03-01T13:32:55;23.23;;;13.73;;
21860;SDS011;11095;48.066;8.540;2023-03-01T13:37:44;22.15;;;13.55;;
21860;SDS011;11095;48.066;8.540;2023-03-01T13:42:46;19.75;;;12.45;;
21860;SDS011;11095;48.066;8.540;2023-03-01T13:45:20;23.33;;;13.52;;
21860;SDS011;11095;48.066;8.540;2023-03-01T13:47:53;24.08;;;13.40;;
21860;SDS011;11095;48.066;8.540;2023-03-01T13:50:24;21.70;;;12.73;;
21860;SDS011;11095;48.066;8.540;2023-03-01T13:53:00;24.20;;;13.95;;
21860;SDS011;11095;48.066;8.540;2023-03-01T13:55:32;20.95;;;12.48;;
21860;SDS011;11095;48.066;8.540;2023-03-01T13:58:05;21.15;;;12.63;;
21860;SDS011;11095;48.066;8.540;2023-03-01T14:00:54;20.30;;;12.95;;
21860;SDS011;11095;48.066;8.540;2023-03-01T14:03:29;21.17;;;13.02;;
21860;SDS011;11095;48.066;8.540;2023-03-01T14:05:58;19.67;;;12.80;;
21860;SDS011;11095;48.066;8.540;2023-03-01T14:22:22;22.33;;;13.68;;
21860;SDS011;11095;48.066;8.540;2023-03-01T14:24:51;22.48;;;13.18;;
21860;SDS011;11095;48.066;8.540;2023-03-01T14:27:38;21.77;;;12.45;;
21860;SDS011;11095;48.066;8.540;2023-03-01T14:33:04;22.40;;;13.32;;
21860;SDS011;11095;48.066;8.540;2023-03-01T14:35:34;21.58;;;14.07;;
21860;SDS011;11095;48.066;8.540;2023-03-01T14:38:01;21.73;;;13.63;;
21860;SDS011;11095;48.066;8.540;2023-03-01T14:42:56;19.92;;;12.75;;
21860;SDS011;11095;48.066;8.540;2023-03-01T14:45:25;21.42;;;13.93;;
21860;SDS011;11095;48.066;8.540;2023-03-01T14:47:53;22.42;;;13.80;;
21860;SDS011;11095;48.066;8.540;2023-03-01T14:50:27;22.58;;;13.85;;
21860;SDS011;11095;48.066;8.540;2023-03-01T14:52:56;22.17;;;13.48;;
21860;SDS011;11095;48.066;8.540;2023-03-01T14:55:37;20.38;;;13.65;;
21860;SDS011;11095;48.066;8.540;2023-03-01T14:58:10;21.42;;;14.00;;
21860;SDS011;11095;48.066;8.540;2023-03-01T15:00:38;23.13;;;14.20;;
21860;SDS011;11095;48.066;8.540;2023-03-01T15:03:52;23.27;;;14.25;;
21860;SDS011;11095;48.066;8.540;2023-03-01T15:06:03;21.60;;;14.35;;
21860;SDS011;11095;48.066;8.540;2023-03-01T15:08:31;23.27;;;14.50;;
21860;SDS011;11095;48.066;8.540;2023-03-01T15:13:30;20.17;;;13.57;;
21860;SDS011;11095;48.066;8.540;2023-03-01T15:16:05;21.20;;;14.50;;
21860;SDS011;11095;48.066;8.540;2023-03-01T15:18:31;24.33;;;15.23;;
21860;SDS011;11095;48.066;8.540;2023-03-01T15:21:48;22.50;;;14.38;;
21860;SDS011;11095;48.066;8.540;2023-03-01T15:23:52;22.90;;;14.00;;
21860;SDS011;11095;48.066;8.540;2023-03-01T15:26:30;23.50;;;14.95;;
21860;SDS011;11095;48.066;8.540;2023-03-01T15:29:04;23.33;;;14.60;;
21860;SDS011;11095;48.066;8.540;2023-03-01T15:31:41;22.73;;;14.38;;
21860;SDS011;11095;48.066;8.540;2023-03-01T15:34:24;22.80;;;14.45;;
21860;SDS011;11095;48.066;8.540;2023-03-01T15:36:52;23.77;;;14.85;;
21860;SDS011;11095;48.066;8.540;2023-03-01T15:39:53;20.38;;;14.23;;
21860;SDS011;11095;48.066;8.540;2023-03-01T15:42:36;21.67;;;14.00;;
21860;SDS011;11095;48.066;8.540;2023-03-01T15:47:43;24.10;;;14.77;;
21860;SDS011;11095;48.066;8.540;2023-03-01T15:50:56;22.77;;;14.43;;
21860;SDS011;11095;48.066;8.540;2023-03-01T15:53:14;21.48;;;14.35;;
21860;SDS011;11095;48.066;8.540;2023-03-01T15:55:40;20.08;;;13.50;;
21860;SDS011;11095;48.066;8.540;2023-03-01T15:58:10;21.33;;;13.52;;
21860;SDS011;11095;48.066;8.540;2023-03-01T16:00:39;21.98;;;14.20;;
21860;SDS011;11095;48.066;8.540;2023-03-01T16:03:05;19.85;;;13.27;;
21860;SDS011;11095;48.066;8.540;2023-03-01T16:05:35;22.25;;;14.60;;
21860;SDS011;11095;48.066;8.540;2023-03-01T16:08:01;21.42;;;14.40;;
21860;SDS011;11095;48.066;8.540;2023-03-01T16:10:28;22.45;;;14.93;;
21860;SDS011;11095;48.066;8.540;2023-03-01T16:12:54;24.88;;;15.27;;
21860;SDS011;11095;48.066;8.540;2023-03-01T16:15:21;21.38;;;14.50;;
21860;SDS011;11095;48.066;8.540;2023-03-01T16:17:52;22.52;;;14.55;;
21860;SDS011;11095;48.066;8.540;2023-03-01T16:20:18;23.52;;;14.88;;
21860;SDS011;11095;48.066;8.540;2023-03-01T16:22:44;26.98;;;15.57;;
21860;SDS011;11095;48.066;8.540;2023-03-01T16:25:14;27.23;;;15.38;;
21860;SDS011;11095;48.066;8.540;2023-03-01T16:27:42;23.02;;;14.48;;
21860;SDS011;11095;48.066;8.540;2023-03-01T16:30:09;23.63;;;15.25;;
21860;SDS011;11095;48.066;8.540;2023-03-01T16:32:41;22.58;;;14.07;;
21860;SDS011;11095;48.066;8.540;2023-03-01T16:35:09;24.30;;;14.68;;
21860;SDS011;11095;48.066;8.540;2023-03-01T16:37:37;22.02;;;14.13;;
21860;SDS011;11095;48.066;8.540;2023-03-01T16:40:04;23.90;;;14.55;;
21860;SDS011;11095;48.066;8.540;2023-03-01T16:42:35;25.52;;;14.70;;
21860;SDS011;11095;48.066;8.540;2023-03-01T16:45:01;23.17;;;14.47;;
21860;SDS011;11095;48.066;8.540;2023-03-01T16:47:27;26.65;;;14.73;;
21860;SDS011;11095;48.066;8.540;2023-03-01T16:49:53;24.38;;;15.27;;
21860;SDS011;11095;48.066;8.540;2023-03-01T16:52:20;24.10;;;14.63;;
21860;SDS011;11095;48.066;8.540;2023-03-01T16:54:46;25.20;;;15.75;;
21860;SDS011;11095;48.066;8.540;2023-03-01T16:57:12;25.33;;;15.65;;
21860;SDS011;11095;48.066;8.540;2023-03-01T16:59:37;26.67;;;15.93;;
21860;SDS011;11095;48.066;8.540;2023-03-01T17:02:03;25.13;;;15.63;;
21860;SDS011;11095;48.066;8.540;2023-03-01T17:04:31;26.58;;;15.57;;
21860;SDS011;11095;48.066;8.540;2023-03-01T17:06:56;23.88;;;15.55;;
21860;SDS011;11095;48.066;8.540;2023-03-01T17:09:22;27.77;;;16.15;;
21860;SDS011;11095;48.066;8.540;2023-03-01T17:11:48;27.88;;;17.00;;
21860;SDS011;11095;48.066;8.540;2023-03-01T17:14:14;29.15;;;17.15;;
21860;SDS011;11095;48.066;8.540;2023-03-01T17:16:43;28.58;;;16.55;;